Time;durP1;ratioP1;P1;durP2;ratioP2;P2;SDS_P1;SDS_P2;PMS_P1;PMS_P2;Temp;Humidity;BMP_temperature;BMP_pressure;BME280_temperature;BME280_humidity;BME280_pressure;Samples;Min_cycle;Max_cycle;Signal;HPM_P1;HPM_P2
2022/09/20 00:00:03;;;;;;;0.98;0.60;;;10.90;84.40;;;;;;5038549;28;20033;-77
2022/09/20 00:02:29;;;;;;;1.70;0.90;;;10.90;84.40;;;;;;5025446;28;20499;-77
2022/09/20 00:04:55;;;;;;;1.98;0.52;;;10.80;84.30;;;;;;5040223;28;20167;-76
2022/09/20 00:07:20;;;;;;;1.35;0.63;;;10.80;84.40;;;;;;5007429;28;20112;-76
2022/09/20 00:09:46;;;;;;;3.53;0.93;;;10.80;84.40;;;;;;5013685;28;20042;-76
2022/09/20 00:12:11;;;;;;;4.00;0.85;;;10.70;84.40;;;;;;5029688;28;20457;-76
2022/09/20 00:14:37;;;;;;;2.45;0.63;;;10.70;84.50;;;;;;5015914;28;20029;-76
2022/09/20 00:17:02;;;;;;;3.28;0.70;;;10.60;84.60;;;;;;5034440;28;20039;-76
2022/09/20 00:19:28;;;;;;;2.90;0.60;;;10.60;84.60;;;;;;5026959;28;20048;-76
2022/09/20 00:21:54;;;;;;;4.38;0.82;;;10.60;84.70;;;;;;5019424;28;20037;-76
2022/09/20 00:24:19;;;;;;;3.10;0.60;;;10.50;84.80;;;;;;5040049;28;20448;-76
2022/09/20 00:26:45;;;;;;;2.45;0.68;;;10.60;84.90;;;;;;5018632;28;20029;-76
2022/09/20 00:29:12;;;;;;;0.90;0.50;;;10.50;85.00;;;;;;5014975;28;20037;-76
2022/09/20 00:31:39;;;;;;;3.35;1.00;;;10.60;85.10;;;;;;5024999;28;20044;-76
2022/09/20 00:36:48;;;;;;;1.33;0.50;;;10.60;85.20;;;;;;5018374;28;20048;-76
2022/09/20 00:39:14;;;;;;;3.03;0.70;;;10.60;85.20;;;;;;5021925;28;20029;-76
2022/09/20 00:41:39;;;;;;;3.17;0.80;;;10.60;85.20;;;;;;5035681;28;20037;-76
2022/09/20 00:44:40;;;;;;;3.17;1.00;;;10.60;85.30;;;;;;5006628;28;20219;-76
2022/09/20 00:47:05;;;;;;;2.17;0.75;;;10.60;85.50;;;;;;5039690;28;20045;-76
2022/09/20 00:49:31;;;;;;;4.60;0.80;;;10.60;85.30;;;;;;5005971;28;20045;-76
2022/09/20 00:51:58;;;;;;;1.80;0.70;;;10.60;85.20;;;;;;5019838;28;20112;-76
2022/09/20 00:54:24;;;;;;;2.72;0.68;;;10.60;85.40;;;;;;5015965;28;20098;-76
2022/09/20 00:56:49;;;;;;;4.15;0.88;;;10.50;85.30;;;;;;5019639;28;20630;-76
2022/09/20 00:59:24;;;;;;;2.47;0.60;;;10.50;85.30;;;;;;5036606;28;20441;-76
2022/09/20 01:01:52;;;;;;;1.90;0.60;;;10.50;85.60;;;;;;5026145;28;20025;-76
2022/09/20 01:04:18;;;;;;;1.50;0.85;;;10.50;85.70;;;;;;5009586;28;20041;-76
2022/09/20 01:06:44;;;;;;;3.10;1.10;;;10.40;85.60;;;;;;5033818;28;20497;-76
2022/09/20 01:09:09;;;;;;;1.75;0.70;;;10.50;85.70;;;;;;5031436;28;20493;-75
2022/09/20 01:11:35;;;;;;;3.92;0.68;;;10.50;85.70;;;;;;5030656;28;20043;-77
2022/09/20 01:14:00;;;;;;;2.03;0.50;;;10.50;85.80;;;;;;5019401;28;20436;-77
2022/09/20 01:16:26;;;;;;;1.73;0.70;;;10.40;85.80;;;;;;5015664;28;20045;-76
2022/09/20 01:18:51;;;;;;;2.70;0.90;;;10.50;85.90;;;;;;5013709;28;20025;-76
2022/09/20 01:21:17;;;;;;;2.63;1.00;;;10.50;85.90;;;;;;5011695;28;20080;-75
2022/09/20 01:24:09;;;;;;;2.72;0.77;;;10.50;85.90;;;;;;5030358;28;20072;-76
2022/09/20 01:26:53;;;;;;;3.03;0.90;;;10.40;86.00;;;;;;5023768;28;20040;-76
2022/09/20 01:29:38;;;;;;;2.40;1.08;;;10.40;86.20;;;;;;5026783;28;20120;-76
2022/09/20 01:32:07;;;;;;;1.80;0.73;;;10.40;86.20;;;;;;5014370;28;20041;-76
2022/09/20 01:34:36;;;;;;;2.42;0.93;;;10.40;86.00;;;;;;5006121;28;20116;-75
2022/09/20 01:37:38;;;;;;;3.50;0.80;;;10.40;86.10;;;;;;5015594;28;20052;-76
2022/09/20 01:40:18;;;;;;;3.08;0.68;;;10.30;86.00;;;;;;5000493;28;20060;-76
2022/09/20 01:42:54;;;;;;;2.17;0.93;;;10.30;86.30;;;;;;5039582;28;20048;-76
2022/09/20 01:45:21;;;;;;;3.60;0.95;;;10.30;86.30;;;;;;4988783;28;20033;-75
2022/09/20 01:48:08;;;;;;;1.67;0.88;;;10.30;86.20;;;;;;5027842;28;20041;-75
2022/09/20 01:50:41;;;;;;;2.97;0.82;;;10.30;86.50;;;;;;5025195;28;20068;-76
2022/09/20 01:53:25;;;;;;;2.40;0.80;;;10.20;86.30;;;;;;5004235;28;20044;-76
2022/09/20 01:56:02;;;;;;;2.35;0.90;;;10.30;86.30;;;;;;5029187;28;20040;-76
2022/09/20 01:59:02;;;;;;;3.13;0.77;;;10.20;86.30;;;;;;5030906;28;20062;-75
2022/09/20 02:01:49;;;;;;;2.63;0.65;;;10.20;86.50;;;;;;5032713;28;20043;-75
2022/09/20 02:04:39;;;;;;;2.45;0.70;;;10.20;86.40;;;;;;5027335;28;20072;-76
2022/09/20 02:07:22;;;;;;;2.53;0.70;;;10.10;86.50;;;;;;5019103;28;20034;-76
2022/09/20 02:10:06;;;;;;;3.78;0.70;;;10.20;86.60;;;;;;5046082;28;20041;-75
2022/09/20 02:12:51;;;;;;;6.85;2.03;;;10.10;86.70;;;;;;5031555;28;20059;-76
2022/09/20 02:16:03;;;;;;;3.30;1.40;;;10.10;86.40;;;;;;5034741;28;20103;-76
2022/09/20 02:19:07;;;;;;;5.13;1.52;;;10.10;86.60;;;;;;5015621;28;20042;-76
2022/09/20 02:21:36;;;;;;;1.92;1.30;;;10.10;86.70;;;;;;5019607;28;20041;-76
2022/09/20 02:24:40;;;;;;;3.88;1.20;;;10.00;86.40;;;;;;5033239;28;20063;-76
2022/09/20 02:27:22;;;;;;;3.80;1.17;;;10.00;86.70;;;;;;5029211;28;20040;-75
2022/09/20 02:29:57;;;;;;;2.78;1.08;;;10.00;86.70;;;;;;5043350;28;20049;-76
2022/09/20 02:32:53;;;;;;;2.15;1.00;;;9.90;86.60;;;;;;5031479;28;20049;-76
2022/09/20 02:35:29;;;;;;;3.83;0.90;;;9.90;87.30;;;;;;5030400;28;20040;-76
2022/09/20 02:37:59;;;;;;;7.35;1.30;;;9.90;86.40;;;;;;5031441;28;20033;-75
2022/09/20 02:41:22;;;;;;;1.50;1.10;;;9.80;86.40;;;;;;5034733;28;20069;-76
2022/09/20 02:44:06;;;;;;;2.63;0.98;;;9.70;86.60;;;;;;4998174;28;20026;-75
2022/09/20 02:46:41;;;;;;;4.22;1.08;;;9.70;86.70;;;;;;4996360;28;20088;-76
2022/09/20 02:49:28;;;;;;;2.90;0.95;;;9.70;86.70;;;;;;4994663;28;20050;-76
2022/09/20 02:52:00;;;;;;;3.53;0.88;;;9.70;86.70;;;;;;4985247;28;20200;-75
2022/09/20 02:54:47;;;;;;;2.33;0.93;;;9.70;86.70;;;;;;4969404;28;20037;-77
2022/09/20 02:57:24;;;;;;;2.38;0.93;;;9.60;86.80;;;;;;4983647;28;20041;-77
2022/09/20 03:00:02;;;;;;;7.60;1.10;;;9.60;86.80;;;;;;4978630;28;20056;-76
2022/09/20 03:02:39;;;;;;;3.00;1.00;;;9.60;87.00;;;;;;5001835;28;20042;-76
2022/09/20 03:05:24;;;;;;;2.50;0.80;;;9.50;86.90;;;;;;5004906;28;20037;-77
2022/09/20 03:08:09;;;;;;;3.45;1.10;;;9.50;87.00;;;;;;4973508;28;20045;-76
2022/09/20 03:10:48;;;;;;;0.93;0.80;;;9.50;87.20;;;;;;4981892;28;20038;-76
2022/09/20 03:13:21;;;;;;;3.10;1.33;;;9.50;87.00;;;;;;4971341;28;20034;-77
2022/09/20 03:16:14;;;;;;;4.63;0.90;;;9.50;87.00;;;;;;5013039;28;20671;-76
2022/09/20 03:19:17;;;;;;;3.22;1.20;;;9.50;87.20;;;;;;5017146;28;20040;-76
2022/09/20 03:21:48;;;;;;;4.03;1.13;;;9.50;87.30;;;;;;5015299;28;20092;-78
2022/09/20 03:24:20;;;;;;;;;;;9.40;87.20;;;;;;5015503;28;20104;-76
2022/09/20 03:26:54;;;;;;;6.40;1.23;;;9.40;87.10;;;;;;5015754;28;19976;-77
2022/09/20 03:29:23;;;;;;;2.42;1.00;;;9.30;87.10;;;;;;5010185;28;20049;-76
2022/09/20 03:32:26;;;;;;;1.35;0.75;;;9.30;87.20;;;;;;5009461;28;20042;-77
2022/09/20 03:35:45;;;;;;;1.55;1.02;;;9.30;87.60;;;;;;5012741;28;20044;-75
2022/09/20 03:38:30;;;;;;;4.20;1.20;;;9.30;87.50;;;;;;4998352;28;20120;-76
2022/09/20 03:41:11;;;;;;;1.83;1.00;;;9.20;87.30;;;;;;5011103;28;20048;-76
2022/09/20 03:43:54;;;;;;;5.22;1.02;;;9.20;87.30;;;;;;5012320;28;20780;-76
2022/09/20 03:46:21;;;;;;;3.40;0.95;;;9.20;87.30;;;;;;5008304;28;20036;-76
2022/09/20 03:48:52;;;;;;;6.75;1.20;;;9.10;87.30;;;;;;5018379;28;20077;-76
2022/09/20 03:51:22;;;;;;;;;;;9.10;87.50;;;;;;5033956;28;20139;-75
2022/09/20 03:53:50;;;;;;;1.67;0.82;;;9.10;87.50;;;;;;5031187;28;20038;-75
2022/09/20 03:56:31;;;;;;;3.47;1.30;;;9.10;87.60;;;;;;5038317;28;20033;-76
2022/09/20 03:59:03;;;;;;;2.55;1.00;;;9.10;87.80;;;;;;5055026;28;20044;-76
2022/09/20 04:02:05;;;;;;;5.75;2.28;;;9.10;87.70;;;;;;5034578;28;20763;-76
2022/09/20 04:04:49;;;;;;;1.83;1.10;;;9.20;87.90;;;;;;5031195;28;20067;-76
2022/09/20 04:07:22;;;;;;;2.42;1.20;;;9.10;87.70;;;;;;5035085;28;20456;-76
2022/09/20 04:10:10;;;;;;;3.47;1.25;;;9.10;87.80;;;;;;5034276;28;20139;-75
2022/09/20 04:13:02;;;;;;;5.18;1.40;;;9.10;87.90;;;;;;5034355;28;20567;-76
2022/09/20 04:15:54;;;;;;;3.75;1.52;;;9.10;88.00;;;;;;5020884;28;20053;-75
2022/09/20 04:18:39;;;;;;;3.22;1.27;;;9.20;88.00;;;;;;5013204;28;20035;-76
2022/09/20 04:21:35;;;;;;;3.88;1.42;;;9.20;88.10;;;;;;5033104;28;20033;-76
2022/09/20 04:24:24;;;;;;;2.92;1.02;;;9.20;88.40;;;;;;5033458;28;20041;-76
2022/09/20 04:27:09;;;;;;;3.47;1.20;;;9.20;88.40;;;;;;5032620;28;20038;-75
2022/09/20 04:29:59;;;;;;;3.83;1.30;;;9.20;88.20;;;;;;5032253;28;20049;-76
2022/09/20 04:32:50;;;;;;;1.40;0.95;;;9.20;88.30;;;;;;5029350;28;20785;-76
2022/09/20 04:38:38;;;;;;;3.40;1.38;;;9.30;88.60;;;;;;5035847;28;20095;-76
2022/09/20 04:41:19;;;;;;;3.15;1.40;;;9.30;88.20;;;;;;5027768;28;20063;-76
2022/09/20 04:43:58;;;;;;;2.92;1.48;;;9.40;88.50;;;;;;5044167;28;20045;-76
2022/09/20 04:46:52;;;;;;;2.85;1.67;;;9.30;88.50;;;;;;5035903;28;20033;-75
2022/09/20 04:49:51;;;;;;;3.20;1.13;;;9.40;88.70;;;;;;5036087;28;20055;-77
2022/09/20 04:52:29;;;;;;;7.25;2.08;;;9.40;88.70;;;;;;5031661;28;20132;-76
2022/09/20 04:55:11;;;;;;;5.45;2.15;;;9.40;88.50;;;;;;5031348;28;20071;-77
2022/09/20 04:57:39;;;;;;;3.85;1.30;;;9.50;88.90;;;;;;5032608;28;20721;-75
2022/09/20 05:00:11;;;;;;;4.30;1.25;;;9.50;88.70;;;;;;5037071;28;20474;-77
2022/09/20 05:02:51;;;;;;;9.52;4.07;;;9.50;88.80;;;;;;5022643;28;20068;-76
2022/09/20 05:05:42;;;;;;;4.97;2.50;;;9.50;88.80;;;;;;5036016;28;20501;-76
2022/09/20 05:08:35;;;;;;;7.80;1.73;;;9.50;89.10;;;;;;5039454;28;20051;-77
2022/09/20 05:11:30;;;;;;;7.13;2.13;;;9.60;89.10;;;;;;5036430;28;20040;-76
2022/09/20 05:14:04;;;;;;;2.88;1.50;;;9.60;89.10;;;;;;5035041;28;20049;-75
2022/09/20 05:16:50;;;;;;;7.57;1.98;;;9.60;88.90;;;;;;5035755;28;20044;-76
2022/09/20 05:19:28;;;;;;;4.60;1.92;;;9.60;89.00;;;;;;5029724;28;20088;-75
2022/09/20 05:22:06;;;;;;;1.95;1.35;;;9.70;89.00;;;;;;5035534;28;20044;-76
2022/09/20 05:24:56;;;;;;;2.53;1.70;;;9.70;89.20;;;;;;5035308;28;20041;-76
2022/09/20 05:27:28;;;;;;;2.13;1.40;;;9.70;89.10;;;;;;5034784;28;20022;-76
2022/09/20 05:30:06;;;;;;;7.32;2.22;;;9.70;89.00;;;;;;5038324;28;20132;-76
2022/09/20 05:33:09;;;;;;;4.40;1.60;;;9.70;89.10;;;;;;5032408;28;20544;-76
2022/09/20 05:36:03;;;;;;;6.95;2.50;;;9.80;89.20;;;;;;5037901;28;20433;-77
2022/09/20 05:38:28;;;;;;;6.53;2.80;;;9.80;89.10;;;;;;5016314;28;20732;-76
2022/09/20 05:41:08;;;;;;;6.55;3.22;;;9.80;88.90;;;;;;5039675;28;20128;-76
2022/09/20 05:43:39;;;;;;;5.50;2.60;;;9.90;89.20;;;;;;5021278;28;20029;-77
2022/09/20 05:46:26;;;;;;;2.78;2.15;;;9.90;89.10;;;;;;5029322;28;20029;-75
2022/09/20 05:49:13;;;;;;;4.88;2.22;;;9.90;89.10;;;;;;5037869;28;20036;-76
2022/09/20 05:52:17;;;;;;;4.53;2.33;;;9.90;89.00;;;;;;5031659;28;20041;-77
2022/09/20 05:54:56;;;;;;;7.00;2.30;;;10.00;89.40;;;;;;5010111;28;20033;-75
2022/09/20 05:57:34;;;;;;;6.07;2.75;;;10.00;89.20;;;;;;5034292;28;20122;-75
2022/09/20 06:00:25;;;;;;;4.43;2.97;;;10.10;89.10;;;;;;5037970;28;20029;-76
2022/09/20 06:03:14;;;;;;;4.33;2.80;;;10.10;89.30;;;;;;5018636;28;20033;-76
2022/09/20 06:06:01;;;;;;;3.95;2.20;;;10.10;89.20;;;;;;5036292;28;20272;-76
2022/09/20 06:08:45;;;;;;;4.53;2.17;;;10.20;89.20;;;;;;5034156;28;20095;-75
2022/09/20 06:11:20;;;;;;;5.68;2.35;;;10.20;89.10;;;;;;5039763;28;21047;-76
2022/09/20 06:14:02;;;;;;;3.85;2.28;;;10.20;88.80;;;;;;5039822;28;20034;-76
2022/09/20 06:16:41;;;;;;;7.57;3.67;;;10.30;89.00;;;;;;5036541;28;20040;-77
2022/09/20 06:19:28;;;;;;;6.85;3.67;;;10.30;88.80;;;;;;5004214;28;20037;-75
2022/09/20 06:21:54;;;;;;;5.93;3.30;;;10.40;88.90;;;;;;5020503;28;20021;-76
2022/09/20 06:24:36;;;;;;;4.70;2.75;;;10.40;88.80;;;;;;5030100;28;20029;-76
2022/09/20 06:27:29;;;;;;;7.55;2.72;;;10.50;88.80;;;;;;5029889;28;20033;-76
2022/09/20 06:29:58;;;;;;;6.75;2.80;;;10.50;88.80;;;;;;5036548;28;20082;-76
2022/09/20 06:32:23;;;;;;;4.97;2.65;;;10.60;88.60;;;;;;5030749;28;20727;-76
2022/09/20 06:34:49;;;;;;;8.90;2.22;;;10.60;88.50;;;;;;5015259;28;20116;-76
2022/09/20 06:43:18;;;;;;;6.78;1.98;;;10.80;88.20;;;;;;5031104;28;20037;-77
2022/09/20 06:45:44;;;;;;;7.35;2.15;;;10.90;88.10;;;;;;5029608;28;20045;-77
2022/09/20 06:48:14;;;;;;;8.23;2.03;;;10.90;87.90;;;;;;5031479;28;20040;-76
2022/09/20 06:50:44;;;;;;;7.13;1.60;;;11.00;88.00;;;;;;5029945;28;20117;-77
2022/09/20 06:53:17;;;;;;;5.13;1.52;;;11.10;88.00;;;;;;5014936;28;20122;-77
2022/09/20 06:55:43;;;;;;;5.47;1.52;;;11.10;87.70;;;;;;5017865;28;20037;-77
2022/09/20 06:58:09;;;;;;;5.60;1.42;;;11.20;87.60;;;;;;5020794;28;20030;-77
2022/09/20 07:00:35;;;;;;;3.28;1.38;;;11.20;87.50;;;;;;5033487;28;20852;-75
2022/09/20 07:03:01;;;;;;;6.53;1.92;;;11.30;87.40;;;;;;5028463;28;20208;-77
2022/09/20 07:05:26;;;;;;;8.45;2.00;;;11.40;87.40;;;;;;5032288;28;20524;-77
2022/09/20 07:07:58;;;;;;;4.55;1.70;;;11.50;87.30;;;;;;5028744;28;20562;-75
2022/09/20 07:10:29;;;;;;;;;;;11.60;87.10;;;;;;5017728;28;20044;-76
2022/09/20 07:12:57;;;;;;;4.20;1.48;;;11.70;87.00;;;;;;5036250;28;19917;-76
2022/09/20 07:15:23;;;;;;;3.78;1.48;;;11.80;86.80;;;;;;5021818;28;20040;-77
2022/09/20 07:17:49;;;;;;;4.03;1.50;;;11.80;86.50;;;;;;5022564;28;20047;-76
2022/09/20 07:20:15;;;;;;;6.60;1.23;;;11.80;86.20;;;;;;5019712;28;20041;-76
2022/09/20 07:22:41;;;;;;;4.35;1.40;;;11.90;86.80;;;;;;4998973;28;20033;-77
2022/09/20 07:25:07;;;;;;;3.88;1.25;;;11.90;85.90;;;;;;5013084;28;20048;-76
2022/09/20 07:27:32;;;;;;;5.57;1.20;;;12.00;85.80;;;;;;5046669;28;20025;-76
2022/09/20 07:29:58;;;;;;;6.90;1.50;;;12.00;85.70;;;;;;5036098;28;20742;-76
2022/09/20 07:32:23;;;;;;;4.70;1.40;;;12.10;85.80;;;;;;5026274;28;20527;-76
2022/09/20 07:34:49;;;;;;;4.80;1.40;;;12.20;85.80;;;;;;5006481;28;20530;-77
2022/09/20 07:37:17;;;;;;;7.53;1.88;;;12.40;85.80;;;;;;5013540;28;20037;-76
2022/09/20 07:39:44;;;;;;;3.60;1.50;;;12.50;85.50;;;;;;5019713;28;20033;-76
2022/09/20 07:42:10;;;;;;;4.20;1.38;;;12.70;85.20;;;;;;5032166;28;20037;-77
2022/09/20 07:44:36;;;;;;;2.28;1.23;;;12.80;84.80;;;;;;5033693;28;20120;-78
2022/09/20 07:47:02;;;;;;;4.07;1.17;;;12.80;84.40;;;;;;5031981;28;20112;-76
2022/09/20 07:49:30;;;;;;;4.90;1.15;;;12.90;84.30;;;;;;5015959;28;20069;-77
2022/09/20 07:51:56;;;;;;;4.78;1.33;;;13.00;84.10;;;;;;5019504;28;20126;-76
2022/09/20 07:54:22;;;;;;;3.63;1.65;;;13.20;84.10;;;;;;5027460;28;20052;-77
2022/09/20 07:56:47;;;;;;;6.22;1.42;;;13.30;83.80;;;;;;5018571;28;20029;-76
2022/09/20 07:59:13;;;;;;;9.55;1.88;;;13.50;83.60;;;;;;5017343;28;20040;-76
2022/09/20 08:01:39;;;;;;;11.77;2.15;;;13.60;83.20;;;;;;5000885;28;20033;-76
2022/09/20 08:04:05;;;;;;;7.30;1.25;;;13.80;83.00;;;;;;5014018;28;20029;-77
2022/09/20 08:06:31;;;;;;;5.90;1.20;;;13.90;82.60;;;;;;5030555;28;20063;-76
2022/09/20 08:08:57;;;;;;;1.88;1.02;;;14.10;82.30;;;;;;5032935;28;20484;-76
2022/09/20 08:11:28;;;;;;;4.63;1.30;;;14.20;81.70;;;;;;5036235;28;20083;-76
2022/09/20 08:13:54;;;;;;;2.72;1.30;;;14.30;81.20;;;;;;5027718;28;20498;-77
2022/09/20 08:16:20;;;;;;;5.20;1.02;;;14.30;80.40;;;;;;5017447;28;20029;-76
2022/09/20 08:18:51;;;;;;;3.78;1.10;;;14.30;80.20;;;;;;5035119;28;20037;-77
2022/09/20 08:21:16;;;;;;;6.20;1.38;;;14.30;79.90;;;;;;5034856;28;20565;-78
2022/09/20 08:23:43;;;;;;;8.52;1.40;;;14.40;80.10;;;;;;5007180;28;20029;-76
2022/09/20 08:26:13;;;;;;;4.05;1.50;;;14.30;79.60;;;;;;5001061;28;20037;-76
2022/09/20 08:28:39;;;;;;;6.07;1.15;;;14.30;79.40;;;;;;5029608;28;20037;-78
2022/09/20 08:31:09;;;;;;;3.92;1.10;;;14.30;79.10;;;;;;5012734;28;20033;-77
2022/09/20 08:33:37;;;;;;;2.85;1.23;;;14.30;79.10;;;;;;5027362;28;20503;-77
2022/09/20 08:36:06;;;;;;;3.83;1.15;;;14.30;79.10;;;;;;5026958;28;20054;-77
2022/09/20 08:38:33;;;;;;;4.55;1.42;;;14.30;78.80;;;;;;5019855;28;20488;-77
2022/09/20 08:41:10;;;;;;;3.30;1.10;;;14.30;78.70;;;;;;5005602;28;20498;-77
2022/09/20 08:43:55;;;;;;;4.70;1.05;;;14.20;78.60;;;;;;4999162;28;20038;-78
2022/09/20 08:46:24;;;;;;;2.50;0.90;;;14.30;78.70;;;;;;5013686;28;20033;-76
2022/09/20 08:48:51;;;;;;;6.82;1.75;;;14.30;78.70;;;;;;5013035;28;20730;-77
2022/09/20 08:51:17;;;;;;;6.72;2.60;;;14.40;78.80;;;;;;5018093;28;20033;-77
2022/09/20 08:53:48;;;;;;;4.63;1.95;;;14.40;78.60;;;;;;5033249;28;20036;-77
2022/09/20 08:56:14;;;;;;;4.22;1.08;;;14.50;78.10;;;;;;5028535;28;20111;-77
2022/09/20 08:58:40;;;;;;;6.35;1.75;;;14.50;78.00;;;;;;5029537;28;20478;-77
2022/09/20 09:01:05;;;;;;;3.78;1.50;;;14.60;77.60;;;;;;4999394;28;20435;-77
2022/09/20 09:03:31;;;;;;;5.25;1.50;;;14.70;77.40;;;;;;5000006;28;20396;-77
2022/09/20 09:05:57;;;;;;;9.25;2.25;;;14.70;77.90;;;;;;5027996;28;20041;-78
2022/09/20 09:08:27;;;;;;;6.35;2.03;;;14.70;76.90;;;;;;5028580;28;20052;-77
2022/09/20 09:10:57;;;;;;;9.65;2.75;;;14.70;76.80;;;;;;5012587;28;20041;-77
2022/09/20 09:13:55;;;;;;;4.55;1.80;;;14.80;76.70;;;;;;5013209;28;20038;-77
2022/09/20 09:16:22;;;;;;;7.63;1.95;;;14.80;76.40;;;;;;5014391;28;20037;-78
2022/09/20 09:18:49;;;;;;;8.77;1.60;;;15.00;76.90;;;;;;5034258;28;20065;-77
2022/09/20 09:21:33;;;;;;;4.85;1.40;;;15.20;76.60;;;;;;5017391;28;20048;-78
2022/09/20 09:24:08;;;;;;;8.65;1.60;;;15.50;76.40;;;;;;4981072;28;20042;-77
2022/09/20 09:26:42;;;;;;;4.05;1.65;;;15.60;75.60;;;;;;4996366;28;20033;-77
2022/09/20 09:29:14;;;;;;;5.07;1.30;;;15.70;75.30;;;;;;5008805;28;20039;-78
2022/09/20 09:31:40;;;;;;;6.65;1.25;;;15.80;74.70;;;;;;5034254;28;20033;-76
2022/09/20 09:34:25;;;;;;;4.75;1.30;;;15.80;74.80;;;;;;5022122;28;20025;-76
2022/09/20 09:36:53;;;;;;;7.75;1.20;;;15.70;73.60;;;;;;5025370;28;20144;-79
2022/09/20 09:39:46;;;;;;;5.35;1.40;;;15.70;74.50;;;;;;5030653;28;20540;-76
2022/09/20 09:42:19;;;;;;;6.57;1.45;;;15.90;74.00;;;;;;5032782;28;20048;-77
2022/09/20 09:44:49;;;;;;;4.78;1.10;;;16.20;73.90;;;;;;5032488;28;20548;-77
2022/09/20 09:47:32;;;;;;;3.95;1.17;;;16.30;73.60;;;;;;5035624;28;20040;-76
2022/09/20 09:49:59;;;;;;;7.38;1.25;;;16.40;72.60;;;;;;5019159;28;20594;-77
2022/09/20 09:52:32;;;;;;;4.68;0.68;;;16.50;73.10;;;;;;5037128;28;20090;-77
2022/09/20 09:59:21;;;;;;;61.97;30.90;;;16.60;71.60;;;;;;5019409;28;20052;-76
2022/09/20 10:01:58;;;;;;;67.13;32.00;;;16.70;71.60;;;;;;4965970;28;20878;-76
2022/09/20 10:04:41;;;;;;;16.25;8.13;;;16.80;71.60;;;;;;4981149;28;20026;-76
2022/09/20 10:07:36;;;;;;;33.85;18.08;;;16.80;71.70;;;;;;4972916;28;20105;-77
2022/09/20 10:10:20;;;;;;;27.70;14.63;;;16.80;71.10;;;;;;4928724;28;20040;-76
2022/09/20 10:13:10;;;;;;;47.70;29.83;;;16.90;71.20;;;;;;4977224;28;20041;-76
2022/09/20 10:15:44;;;;;;;20.92;13.55;;;17.00;70.90;;;;;;4981205;28;20073;-76
2022/09/20 10:18:12;;;;;;;12.95;7.60;;;17.20;71.00;;;;;;4975932;28;20033;-76
2022/09/20 10:20:51;;;;;;;8.73;4.70;;;17.40;70.90;;;;;;4991083;28;20796;-76
2022/09/20 10:23:43;;;;;;;8.32;1.67;;;17.50;70.30;;;;;;4977983;28;20091;-76
2022/09/20 10:26:27;;;;;;;;;;;17.50;68.80;;;;;;4973288;28;20046;-76
2022/09/20 10:29:29;;;;;;;5.47;3.10;;;17.50;69.90;;;;;;4988581;28;20374;-77
2022/09/20 10:32:04;;;;;;;;;;;17.40;69.40;;;;;;4980391;28;20097;-76
2022/09/20 10:35:01;;;;;;;6.43;1.60;;;17.40;70.40;;;;;;5019996;28;19920;-76
2022/09/20 10:37:26;;;;;;;4.13;1.90;;;17.50;69.80;;;;;;5027185;28;20037;-77
2022/09/20 10:43:29;;;;;;;5.15;1.65;;;17.40;68.60;;;;;;5033346;28;20048;-77
2022/09/20 10:46:06;;;;;;;3.97;1.80;;;17.40;69.20;;;;;;5026284;28;20167;-77
2022/09/20 10:48:37;;;;;;;4.40;1.20;;;17.40;69.20;;;;;;5024063;28;20037;-78
2022/09/20 10:51:11;;;;;;;6.35;1.48;;;17.40;69.20;;;;;;5033569;28;20036;-77
2022/09/20 10:53:54;;;;;;;3.63;1.60;;;17.40;69.10;;;;;;5008286;28;20080;-78
2022/09/20 10:56:35;;;;;;;4.35;1.80;;;17.40;68.60;;;;;;5028602;28;20284;-77
2022/09/20 10:59:16;;;;;;;2.15;1.05;;;17.40;68.60;;;;;;5019742;28;20703;-77
2022/09/20 11:02:01;;;;;;;3.45;1.48;;;17.40;68.40;;;;;;5015576;28;20052;-77
2022/09/20 11:04:35;;;;;;;3.40;1.25;;;17.40;68.10;;;;;;5034230;28;20150;-77
2022/09/20 11:07:19;;;;;;;4.70;1.13;;;17.40;68.40;;;;;;5005652;28;20115;-77
2022/09/20 11:09:54;;;;;;;7.18;1.13;;;17.50;68.50;;;;;;5032715;28;20527;-77
2022/09/20 11:12:27;;;;;;;4.90;0.80;;;17.50;68.10;;;;;;5022655;28;20026;-77
2022/09/20 11:14:57;;;;;;;4.50;1.13;;;17.50;67.30;;;;;;5024029;28;20537;-77
2022/09/20 11:17:30;;;;;;;2.13;0.73;;;17.50;67.40;;;;;;5021949;28;20051;-76
2022/09/20 11:20:03;;;;;;;2.42;1.10;;;17.50;67.20;;;;;;4996200;28;20108;-77
2022/09/20 11:22:41;;;;;;;2.72;1.05;;;17.70;67.20;;;;;;5040333;28;20041;-76
2022/09/20 11:25:39;;;;;;;4.78;1.02;;;17.90;66.90;;;;;;5008826;28;20511;-77
2022/09/20 11:28:17;;;;;;;2.95;0.90;;;18.20;66.30;;;;;;5022830;28;20025;-77
2022/09/20 11:31:12;;;;;;;4.13;1.10;;;18.60;66.40;;;;;;5033335;28;20123;-78
2022/09/20 11:33:43;;;;;;;4.32;1.10;;;18.90;65.50;;;;;;5021409;28;20037;-77
2022/09/20 11:36:14;;;;;;;1.27;0.93;;;19.10;65.10;;;;;;5031188;28;20112;-76
2022/09/20 11:38:42;;;;;;;2.28;0.80;;;19.40;64.60;;;;;;5025783;28;20045;-77
2022/09/20 11:41:14;;;;;;;3.13;0.77;;;19.60;64.40;;;;;;5017826;28;20045;-76
2022/09/20 11:43:44;;;;;;;1.83;0.85;;;19.80;63.70;;;;;;5001981;28;20033;-77
2022/09/20 11:46:12;;;;;;;2.00;0.90;;;19.80;63.40;;;;;;5015433;28;20033;-76
2022/09/20 11:48:43;;;;;;;2.50;0.98;;;19.80;63.10;;;;;;5018312;28;20041;-77
2022/09/20 11:51:41;;;;;;;3.22;0.73;;;19.70;62.90;;;;;;5033754;28;20681;-76
2022/09/20 11:54:19;;;;;;;2.67;0.85;;;19.70;62.60;;;;;;5033214;28;20101;-77
2022/09/20 11:56:52;;;;;;;3.08;1.23;;;19.70;63.20;;;;;;5035113;28;20488;-77
2022/09/20 11:59:35;;;;;;;3.30;1.00;;;19.70;62.70;;;;;;5020459;28;20106;-77
2022/09/20 12:02:17;;;;;;;5.20;0.85;;;19.60;62.00;;;;;;5018558;28;20114;-76
2022/09/20 12:04:43;;;;;;;5.85;1.13;;;19.70;62.70;;;;;;5007396;28;20504;-75
2022/09/20 12:07:29;;;;;;;5.28;0.98;;;19.70;62.40;;;;;;5001617;28;20039;-75
2022/09/20 12:09:56;;;;;;;4.25;0.63;;;19.90;60.80;;;;;;5032435;28;20036;-75
2022/09/20 12:12:36;;;;;;;4.82;0.98;;;20.00;61.90;;;;;;5028797;28;20219;-75
2022/09/20 12:15:04;;;;;;;5.20;0.90;;;20.30;61.80;;;;;;5031766;28;20041;-75
2022/09/20 12:17:45;;;;;;;3.15;1.15;;;20.60;61.60;;;;;;5028756;28;20040;-75
2022/09/20 12:20:37;;;;;;;3.63;0.85;;;20.80;59.60;;;;;;5031471;28;20032;-75
2022/09/20 12:23:40;;;;;;;2.88;0.93;;;20.90;59.70;;;;;;5026534;28;20040;-76
2022/09/20 12:26:20;;;;;;;3.03;0.70;;;21.10;59.10;;;;;;5029210;28;20542;-76
2022/09/20 12:28:55;;;;;;;3.42;0.95;;;21.30;59.50;;;;;;5026460;28;20049;-75
2022/09/20 12:31:21;;;;;;;1.95;0.82;;;21.50;59.40;;;;;;5036426;28;20106;-75
2022/09/20 12:34:12;;;;;;;3.90;0.70;;;21.60;59.20;;;;;;5010892;28;20486;-76
2022/09/20 12:36:54;;;;;;;3.23;0.87;;;21.80;58.30;;;;;;5044244;28;20042;-77
2022/09/20 12:39:36;;;;;;;1.25;0.60;;;21.90;58.60;;;;;;5012918;28;20517;-76
2022/09/20 12:42:04;;;;;;;5.65;0.90;;;21.90;58.20;;;;;;5028619;28;20055;-76
2022/09/20 12:44:48;;;;;;;1.38;0.65;;;22.00;58.30;;;;;;5016786;28;20044;-76
2022/09/20 12:47:22;;;;;;;3.22;0.95;;;22.00;57.20;;;;;;4996341;28;20087;-75
2022/09/20 12:52:56;;;;;;;3.13;0.60;;;21.80;57.40;;;;;;5016887;28;20032;-75
2022/09/20 12:55:56;;;;;;;3.08;1.92;;;21.80;57.50;;;;;;5016183;28;20040;-76
2022/09/20 12:58:50;;;;;;;2.83;1.23;;;21.70;56.20;;;;;;5026281;28;20041;-75
2022/09/20 13:01:15;;;;;;;3.85;1.02;;;21.70;56.70;;;;;;5027094;28;20045;-76
2022/09/20 13:03:42;;;;;;;2.88;0.90;;;21.50;57.20;;;;;;5023206;28;20045;-76
2022/09/20 13:06:11;;;;;;;3.00;0.60;;;21.20;56.80;;;;;;5012707;28;20382;-76
2022/09/20 13:08:58;;;;;;;1.63;0.70;;;20.90;57.30;;;;;;5024284;28;20564;-75
2022/09/20 13:12:02;;;;;;;2.47;0.93;;;20.90;57.40;;;;;;5032256;28;20041;-76
2022/09/20 13:14:31;;;;;;;2.35;0.60;;;20.80;57.60;;;;;;4994393;28;20045;-75
2022/09/20 13:17:14;;;;;;;2.97;0.40;;;20.60;57.70;;;;;;4959931;28;20052;-75
2022/09/20 13:19:46;;;;;;;1.80;0.40;;;20.60;57.20;;;;;;5014448;28;20147;-75
2022/09/20 13:22:36;;;;;;;3.35;0.50;;;20.70;57.40;;;;;;4985454;28;20087;-75
2022/09/20 13:25:03;;;;;;;1.13;0.38;;;20.70;56.90;;;;;;5003155;28;20507;-75
2022/09/20 13:27:37;;;;;;;3.53;0.50;;;20.90;57.30;;;;;;4982273;28;20045;-76
2022/09/20 13:30:16;;;;;;;2.47;0.70;;;20.90;56.40;;;;;;4986981;28;20124;-75
2022/09/20 13:32:41;;;;;;;1.88;0.40;;;20.80;56.60;;;;;;4994477;28;20034;-75
2022/09/20 13:35:14;;;;;;;3.17;0.95;;;20.80;56.80;;;;;;4985103;28;20044;-76
2022/09/20 13:37:58;;;;;;;1.25;0.60;;;20.80;56.30;;;;;;5001493;28;20058;-75
2022/09/20 13:40:42;;;;;;;3.40;0.90;;;20.80;56.70;;;;;;5007122;28;20045;-75
2022/09/20 13:43:27;;;;;;;1.73;0.57;;;20.70;55.30;;;;;;4989760;28;20093;-76
2022/09/20 13:46:05;;;;;;;3.15;0.60;;;20.50;55.60;;;;;;5008641;28;20040;-76
2022/09/20 13:48:31;;;;;;;1.95;0.50;;;20.00;55.90;;;;;;4984452;28;20048;-76
2022/09/20 13:50:57;;;;;;;1.25;0.73;;;19.60;56.50;;;;;;5035987;28;20119;-76
2022/09/20 13:53:24;;;;;;;2.05;0.80;;;19.20;57.20;;;;;;5014629;28;20265;-76
2022/09/20 13:55:49;;;;;;;2.45;1.08;;;19.10;57.70;;;;;;5000328;28;20120;-75
2022/09/20 13:58:27;;;;;;;1.30;0.90;;;18.80;57.70;;;;;;5009703;28;20580;-76
2022/09/20 14:00:53;;;;;;;1.38;0.40;;;18.50;58.60;;;;;;5029014;28;20146;-76